Time;durP1;ratioP1;P1;durP2;ratioP2;P2;SDS_P1;SDS_P2;PMS_P1;PMS_P2;Temp;Humidity;BMP_temperature;BMP_pressure;BME280_temperature;BME280_humidity;BME280_pressure;Samples;Min_cycle;Max_cycle;Signal;HPM_P1;HPM_P2
2023/01/11 00:01:35;;;;;;;12.75;10.35;;;;;;;;;;5066321;28;20076;-60
2023/01/11 00:04:01;;;;;;;14.18;10.48;;;;;;;;;;5066385;28;20060;-62
2023/01/11 00:06:26;;;;;;;16.75;10.20;;;9.80;99.90;;;;;;5048370;28;20490;-61
2023/01/11 00:08:54;;;;;;;14.93;10.60;;;;;;;;;;5066815;28;20477;-61
2023/01/11 00:11:20;;;;;;;15.20;10.30;;;;;;;;;;5048455;28;20091;-61
2023/01/11 00:13:46;;;;;;;15.45;10.88;;;;;;;;;;5066856;28;20075;-61
2023/01/11 00:16:13;;;;;;;14.10;10.75;;;;;;;;;;5067104;28;20533;-61
2023/01/11 00:18:39;;;;;;;14.88;10.15;;;;;;;;;;5048008;28;20044;-61
2023/01/11 00:21:06;;;;;;;14.65;10.18;;;;;;;;;;5066990;28;20402;-60
2023/01/11 00:23:36;;;;;;;15.98;10.25;;;;;;;;;;5052192;28;20056;-61
2023/01/11 00:26:05;;;;;;;13.35;10.07;;;;;;;;;;5070329;28;20425;-61
2023/01/11 00:28:31;;;;;;;12.25;9.30;;;;;;;;;;5070158;28;20049;-61
2023/01/11 00:30:57;;;;;;;13.23;10.18;;;10.00;99.90;;;;;;5051742;28;20128;-61
2023/01/11 00:33:23;;;;;;;13.05;9.88;;;;;;;;;;5069854;28;20410;-60
2023/01/11 00:35:52;;;;;;;14.07;10.35;;;;;;;;;;5070083;28;20158;-61
2023/01/11 00:49:22;;;;;;;12.05;8.90;;;;;;;;;;5069733;28;20048;-61
2023/01/11 00:51:48;;;;;;;13.40;9.88;;;9.90;99.90;;;;;;5069622;28;20041;-61
2023/01/11 00:54:14;;;;;;;14.63;10.23;;;;;;;;;;5069605;28;20747;-61
2023/01/11 00:56:39;;;;;;;13.02;9.20;;;10.00;99.90;;;;;;5051427;28;20045;-61
2023/01/11 00:59:05;;;;;;;13.43;8.95;;;;;;;;;;5051505;28;20047;-61
2023/01/11 01:01:31;;;;;;;11.52;9.25;;;;;;;;;;5069503;28;20047;-61
2023/01/11 01:03:59;;;;;;;13.23;9.00;;;;;;;;;;5069874;28;20115;-61
2023/01/11 01:06:25;;;;;;;13.73;8.77;;;;;;;;;;5051440;28;20056;-61
2023/01/11 01:08:51;;;;;;;10.60;8.02;;;;;;;;;;5069368;28;20166;-61
2023/01/11 01:11:17;;;;;;;12.30;8.82;;;;;;;;;;5051182;28;20439;-61
2023/01/11 01:16:27;;;;;;;11.45;8.63;;;;;;;;;;5069339;28;20048;-61
2023/01/11 01:18:55;;;;;;;10.90;7.78;;;;;;;;;;5051150;28;20048;-61
2023/01/11 01:21:22;;;;;;;12.57;8.00;;;;;;;;;;5051713;28;20544;-61
2023/01/11 01:23:48;;;;;;;12.32;8.35;;;;;;;;;;5069516;28;20119;-61
2023/01/11 01:26:13;;;;;;;10.05;7.45;;;10.20;99.90;;;;;;5069536;28;20132;-61
2023/01/11 01:28:39;;;;;;;10.38;7.50;;;;;;;;;;5069666;28;20108;-61
2023/01/11 01:31:05;;;;;;;13.88;8.30;;;;;;;;;;5051127;28;20071;-61
2023/01/11 01:33:31;;;;;;;11.57;7.93;;;;;;;;;;5068939;28;20072;-62
2023/01/11 01:35:57;;;;;;;12.52;9.07;;;;;;;;;;5051208;28;20151;-61
2023/01/11 01:38:23;;;;;;;9.43;6.72;;;;;;;;;;5051402;28;20131;-61
2023/01/11 01:40:49;;;;;;;11.77;7.43;;;;;;;;;;5069123;28;20051;-61
2023/01/11 01:43:16;;;;;;;10.93;8.43;;;10.30;99.90;;;;;;5069355;28;20058;-61
2023/01/11 01:45:42;;;;;;;13.32;8.48;;;;;;;;;;5069179;28;20120;-61
2023/01/11 01:48:10;;;;;;;11.10;7.75;;;;;;;;;;5050899;28;20048;-61
2023/01/11 01:50:53;;;;;;;11.80;8.35;;;;;;;;;;5057405;28;20037;-61
2023/01/11 01:53:35;;;;;;;10.95;7.60;;;;;;;;;;5069023;28;20119;-61
2023/01/11 01:56:03;;;;;;;12.57;7.70;;;;;;;;;;5068898;28;20037;-61
2023/01/11 01:58:33;;;;;;;12.85;7.47;;;;;;;;;;5050914;28;20049;-61
2023/01/11 02:03:44;;;;;;;9.65;7.10;;;;;;;;;;5056625;28;20530;-61
2023/01/11 02:06:10;;;;;;;9.45;7.22;;;;;;;;;;5068559;28;20502;-61
2023/01/11 02:08:38;;;;;;;10.38;7.72;;;;;;;;;;5068667;28;20072;-61
2023/01/11 02:11:28;;;;;;;10.32;6.90;;;;;;;;;;5050880;28;20052;-61
2023/01/11 02:13:52;;;;;;;9.00;6.82;;;10.60;99.90;;;;;;5037887;28;20131;-61
2023/01/11 02:16:18;;;;;;;11.57;7.40;;;;;;;;;;5068022;28;20055;-62
2023/01/11 02:18:44;;;;;;;10.35;6.82;;;;;;;;;;5050700;28;20052;-61
2023/01/11 02:21:22;;;;;;;9.63;7.25;;;;;;;;;;5068548;28;20538;-61
2023/01/11 02:24:11;;;;;;;10.80;6.88;;;10.70;99.90;;;;;;5068600;28;20442;-61
2023/01/11 02:27:12;;;;;;;8.45;6.90;;;10.50;99.90;;;;;;5036747;28;20051;-61
2023/01/11 02:29:45;;;;;;;8.57;6.07;;;;;;;;;;5068153;28;20040;-61
2023/01/11 02:32:21;;;;;;;9.52;6.05;;;;;;;;;;5068130;28;20498;-62
2023/01/11 02:35:01;;;;;;;8.73;6.10;;;10.60;99.90;;;;;;5019217;28;20055;-62
2023/01/11 02:37:41;;;;;;;10.25;6.13;;;;;;;;;;5050001;28;20150;-61
2023/01/11 02:40:16;;;;;;;8.35;5.68;;;;;;;;;;5067489;28;20517;-61
2023/01/11 02:46:11;;;;;;;6.85;5.20;;;;;;;;;;4966407;28;20054;-62
2023/01/11 02:48:41;;;;;;;9.10;5.47;;;;;;;;;;4952643;28;20481;-61
2023/01/11 02:51:12;;;;;;;6.95;5.60;;;10.70;99.90;;;;;;5032879;28;20143;-61
2023/01/11 02:53:47;;;;;;;7.05;5.57;;;10.70;99.90;;;;;;5049141;28;20113;-62
2023/01/11 02:56:19;;;;;;;8.02;5.43;;;10.80;99.90;;;;;;5049247;28;20047;-61
2023/01/11 02:58:46;;;;;;;7.65;5.45;;;;;;;;;;5067101;28;20132;-61
2023/01/11 03:01:12;;;;;;;7.13;4.40;;;11.00;99.90;;;;;;5049103;28;20464;-61
2023/01/11 03:03:38;;;;;;;8.50;4.63;;;;;;;;;;5048839;28;20131;-60
2023/01/11 03:06:05;;;;;;;7.30;4.57;;;;;;;;;;5067204;28;20143;-61
2023/01/11 03:08:34;;;;;;;6.25;4.47;;;10.80;99.90;;;;;;5067034;28;20147;-61
2023/01/11 03:11:05;;;;;;;5.38;4.05;;;10.60;99.90;;;;;;5048943;28;20126;-61
2023/01/11 03:13:54;;;;;;;5.80;4.28;;;;;;;;;;5067064;28;20040;-61
2023/01/11 03:16:24;;;;;;;4.30;3.60;;;;;;;;;;5055609;28;20041;-61
2023/01/11 03:18:59;;;;;;;4.82;3.60;;;;;;;;;;5067135;28;20036;-61
2023/01/11 03:21:48;;;;;;;4.93;3.20;;;;;;;;;;5066825;28;20085;-62
2023/01/11 03:24:25;;;;;;;3.97;3.05;;;10.80;99.90;;;;;;5066990;28;20048;-61
2023/01/11 03:26:51;;;;;;;3.60;2.58;;;;;;;;;;5066512;28;20043;-61
2023/01/11 03:29:32;;;;;;;3.13;2.70;;;;;;;;;;5066769;28;20048;-61
2023/01/11 03:32:17;;;;;;;2.83;2.33;;;;;;;;;;5048239;28;20132;-61
2023/01/11 03:35:02;;;;;;;2.30;1.85;;;;;;;;;;5066948;28;20040;-61
2023/01/11 03:37:35;;;;;;;2.65;1.80;;;10.60;99.90;;;;;;5031964;28;20047;-61
2023/01/11 03:40:23;;;;;;;3.95;1.90;;;10.60;99.90;;;;;;5053288;28;20051;-62
2023/01/11 03:43:26;;;;;;;2.85;2.60;;;;;;;;;;5048492;28;20136;-61
2023/01/11 03:45:59;;;;;;;3.15;2.53;;;10.70;99.90;;;;;;5043900;28;20068;-61
2023/01/11 03:48:30;;;;;;;4.30;2.38;;;;;;;;;;5066641;28;20041;-61
2023/01/11 03:50:58;;;;;;;6.55;3.25;;;;;;;;;;5066737;28;20040;-62
2023/01/11 03:53:25;;;;;;;5.07;3.28;;;;;;;;;;5066437;28;20132;-61
2023/01/11 03:55:54;;;;;;;9.25;3.90;;;;;;;;;;5050557;28;20040;-61
2023/01/11 03:58:20;;;;;;;8.02;4.30;;;;;;;;;;5070456;28;20036;-62
2023/01/11 04:00:47;;;;;;;12.68;5.28;;;10.80;99.90;;;;;;5070608;28;20490;-61
2023/01/11 04:03:13;;;;;;;12.32;4.50;;;;;;;;;;5070645;28;20045;-62
2023/01/11 04:05:42;;;;;;;13.63;5.43;;;11.00;99.90;;;;;;5070421;28;20076;-62
2023/01/11 04:08:10;;;;;;;14.02;5.72;;;;;;;;;;5052308;28;20055;-61
2023/01/11 04:10:36;;;;;;;16.73;5.90;;;;;;;;;;5045812;28;20128;-61
2023/01/11 04:13:02;;;;;;;11.57;5.15;;;;;;;;;;5044275;28;20040;-61
2023/01/11 04:15:30;;;;;;;21.00;5.88;;;;;;;;;;5070212;28;20039;-61
2023/01/11 04:18:03;;;;;;;16.30;5.20;;;11.00;99.90;;;;;;5051989;28;20052;-61
2023/01/11 04:20:29;;;;;;;22.55;5.55;;;;;;;;;;5069846;28;20045;-61
2023/01/11 04:22:55;;;;;;;12.23;4.55;;;;;;;;;;5070508;28;20037;-61
2023/01/11 04:25:21;;;;;;;15.60;6.05;;;;;;;;;;5070253;28;20051;-61
2023/01/11 04:27:47;;;;;;;27.02;5.47;;;;;;;;;;5051774;28;20044;-61
2023/01/11 04:30:13;;;;;;;22.83;5.00;;;;;;;;;;5070042;28;20094;-62
2023/01/11 04:32:39;;;;;;;15.82;4.25;;;;;;;;;;5069701;28;20045;-61
2023/01/11 04:35:05;;;;;;;26.38;5.07;;;;;;;;;;5070035;28;20131;-61
2023/01/11 04:37:31;;;;;;;23.27;4.45;;;;;;;;;;5069784;28;20087;-60
2023/01/11 04:39:57;;;;;;;20.15;4.00;;;;;;;;;;5056442;28;20071;-61
2023/01/11 04:42:24;;;;;;;20.67;4.75;;;;;;;;;;5051754;28;20048;-62
2023/01/11 04:44:51;;;;;;;21.63;4.85;;;;;;;;;;5051830;28;20844;-61
2023/01/11 04:47:18;;;;;;;25.63;4.40;;;;;;;;;;5069956;28;20141;-61
2023/01/11 04:49:44;;;;;;;21.13;4.30;;;;;;;;;;5069516;28;20044;-62
2023/01/11 04:52:11;;;;;;;28.92;5.40;;;;;;;;;;5051931;28;20056;-61
2023/01/11 04:54:37;;;;;;;30.98;5.40;;;10.90;99.90;;;;;;5069380;28;20044;-62
2023/01/11 04:57:04;;;;;;;20.05;3.85;;;;;;;;;;5069524;28;20051;-61
2023/01/11 04:59:30;;;;;;;27.77;4.80;;;;;;;;;;5069416;28;20360;-61
2023/01/11 05:01:56;;;;;;;24.35;5.20;;;;;;;;;;5069424;28;20049;-61
2023/01/11 05:04:22;;;;;;;19.00;3.80;;;;;;;;;;5051562;28;20044;-61
2023/01/11 05:06:48;;;;;;;19.40;4.13;;;;;;;;;;5068354;28;20513;-61
2023/01/11 05:09:15;;;;;;;34.50;5.35;;;;;;;;;;5069526;28;20044;-62
2023/01/11 05:11:41;;;;;;;28.23;4.65;;;;;;;;;;5069407;28;20044;-61
2023/01/11 05:14:07;;;;;;;22.92;4.28;;;;;;;;;;5051227;28;20519;-62
2023/01/11 05:16:33;;;;;;;22.92;4.28;;;;;;;;;;5051151;28;20411;-61
2023/01/11 05:19:00;;;;;;;18.38;3.78;;;;;;;;;;5051168;28;20041;-61
2023/01/11 05:21:30;;;;;;;26.83;4.68;;;10.90;99.90;;;;;;5069079;28;20127;-60
2023/01/11 05:23:56;;;;;;;25.45;4.95;;;;;;;;;;5050679;28;20037;-61
2023/01/11 05:26:28;;;;;;;24.08;5.03;;;10.70;99.90;;;;;;5050873;28;20036;-62
2023/01/11 05:28:55;;;;;;;31.40;5.85;;;;;;;;;;5069478;28;20053;-61
2023/01/11 05:31:21;;;;;;;28.80;5.13;;;;;;;;;;5068800;28;20363;-61
2023/01/11 05:33:47;;;;;;;32.63;5.32;;;10.90;99.90;;;;;;5050991;28;20099;-61
2023/01/11 05:36:15;;;;;;;25.63;4.75;;;10.70;99.90;;;;;;5068841;28;20508;-62
2023/01/11 05:38:41;;;;;;;32.53;5.15;;;;;;;;;;5068871;28;20044;-61
2023/01/11 05:41:08;;;;;;;21.27;4.00;;;;;;;;;;5050768;28;20086;-61
2023/01/11 05:46:20;;;;;;;35.45;4.78;;;;;;;;;;5068747;28;20041;-61
2023/01/11 05:48:46;;;;;;;34.20;4.57;;;;;;;;;;5068860;28;20044;-61
2023/01/11 05:51:12;;;;;;;23.33;3.75;;;;;;;;;;5068480;28;20048;-61
2023/01/11 05:53:37;;;;;;;20.95;4.47;;;10.70;99.90;;;;;;5068453;28;20040;-62
2023/01/11 05:56:03;;;;;;;24.42;4.43;;;;;;;;;;5050379;28;20048;-61
2023/01/11 05:58:29;;;;;;;29.10;4.72;;;;;;;;;;5050462;28;20051;-62
2023/01/11 06:00:55;;;;;;;24.77;4.15;;;;;;;;;;5068480;28;20490;-61
2023/01/11 06:03:22;;;;;;;27.60;3.75;;;;;;;;;;5068488;28;20049;-61
2023/01/11 06:05:48;;;;;;;28.38;4.35;;;10.60;99.90;;;;;;5059709;28;20037;-61
2023/01/11 06:08:14;;;;;;;19.85;4.10;;;;;;;;;;5063465;28;20098;-61
2023/01/11 06:10:40;;;;;;;23.02;3.67;;;;;;;;;;5050433;28;20502;-61
2023/01/11 06:13:28;;;;;;;23.98;3.65;;;;;;;;;;5068398;28;20090;-61
2023/01/11 06:16:06;;;;;;;18.13;2.70;;;;;;;;;;5055474;28;20075;-61
2023/01/11 06:18:52;;;;;;;27.45;3.63;;;10.60;99.90;;;;;;5067737;28;20076;-60
2023/01/11 06:21:18;;;;;;;23.75;3.20;;;10.50;99.90;;;;;;5050170;28;20407;-61
2023/01/11 06:23:46;;;;;;;23.30;4.20;;;;;;;;;;5068016;28;20041;-62
2023/01/11 06:26:14;;;;;;;18.55;3.60;;;10.30;99.90;;;;;;5068099;28;20150;-61
2023/01/11 06:28:40;;;;;;;16.40;2.95;;;;;;;;;;5050120;28;20048;-62
2023/01/11 06:31:07;;;;;;;18.65;3.63;;;10.80;99.90;;;;;;5049893;28;20052;-61
2023/01/11 06:33:33;;;;;;;20.88;3.53;;;;;;;;;;5050220;28;20068;-61
2023/01/11 06:36:03;;;;;;;21.13;3.22;;;10.40;99.90;;;;;;5068190;28;20055;-62
2023/01/11 06:38:28;;;;;;;16.80;3.05;;;10.50;99.90;;;;;;5067896;28;20041;-61
2023/01/11 06:40:56;;;;;;;27.20;4.03;;;10.10;99.90;;;;;;5033414;28;20157;-62
2023/01/11 06:43:23;;;;;;;20.65;3.13;;;;;;;;;;5053930;28;20631;-61
2023/01/11 06:45:48;;;;;;;16.73;3.20;;;10.20;99.90;;;;;;5049831;28;20498;-61
2023/01/11 06:48:16;;;;;;;18.95;3.25;;;10.20;99.90;;;;;;5067623;28;20382;-62
2023/01/11 06:50:41;;;;;;;24.15;3.75;;;;;;;;;;5049272;28;20028;-61
2023/01/11 06:53:07;;;;;;;24.35;3.17;;;;;;;;;;5049451;28;20536;-61
2023/01/11 06:55:33;;;;;;;26.30;5.35;;;;;;;;;;5067464;28;20047;-61
2023/01/11 06:57:59;;;;;;;21.60;3.78;;;9.90;99.90;;;;;;5067079;28;20037;-61
2023/01/11 07:00:25;;;;;;;18.33;3.28;;;;;;;;;;5065873;28;20045;-62
2023/01/11 07:02:51;;;;;;;24.48;3.90;;;;;;;;;;5036432;28;20052;-61
2023/01/11 07:05:17;;;;;;;27.33;3.80;;;9.90;99.90;;;;;;5029286;28;20120;-61
2023/01/11 07:07:43;;;;;;;18.27;3.33;;;;;;;;;;5032772;28;20044;-61
2023/01/11 07:10:11;;;;;;;19.77;3.25;;;;;;;;;;5039564;28;20125;-61
2023/01/11 07:12:37;;;;;;;15.23;3.50;;;;;;;;;;5046864;28;20056;-61
2023/01/11 07:15:04;;;;;;;23.98;5.05;;;;;;;;;;5054259;28;20137;-60
2023/01/11 07:17:29;;;;;;;20.85;3.45;;;9.70;99.90;;;;;;5061911;28;20070;-61
2023/01/11 07:19:55;;;;;;;16.35;3.17;;;9.80;99.90;;;;;;5062426;28;20048;-61
2023/01/11 07:22:21;;;;;;;27.42;3.65;;;;;;;;;;5030082;28;20407;-61
2023/01/11 07:24:47;;;;;;;21.33;4.55;;;;;;;;;;5062742;28;20051;-61
2023/01/11 07:27:13;;;;;;;17.05;4.60;;;;;;;;;;5048833;28;20051;-61
2023/01/11 07:29:39;;;;;;;29.13;4.10;;;10.00;99.90;;;;;;5066486;28;20045;-61
2023/01/11 07:32:07;;;;;;;14.18;2.75;;;;;;;;;;5040297;28;20067;-61
2023/01/11 07:34:33;;;;;;;15.27;3.33;;;;;;;;;;5047607;28;20464;-61
2023/01/11 07:36:59;;;;;;;11.68;2.85;;;;;;;;;;5053203;28;20226;-60
2023/01/11 07:39:25;;;;;;;13.05;2.80;;;;;;;;;;5038150;28;20554;-61
2023/01/11 07:44:35;;;;;;;18.33;3.22;;;;;;;;;;5027657;28;20419;-61
2023/01/11 07:47:00;;;;;;;12.30;2.50;;;9.90;99.90;;;;;;5033961;28;20041;-61
2023/01/11 07:49:27;;;;;;;14.40;2.17;;;;;;;;;;5051537;28;20045;-61
2023/01/11 07:51:53;;;;;;;13.55;2.53;;;;;;;;;;5027869;28;20118;-61
2023/01/11 07:54:19;;;;;;;11.13;2.28;;;;;;;;;;5034174;28;20750;-61
2023/01/11 07:56:45;;;;;;;13.10;2.88;;;9.80;99.90;;;;;;5028122;28;20051;-61
2023/01/11 07:59:11;;;;;;;11.70;2.47;;;;;;;;;;5048330;28;20472;-61
2023/01/11 08:01:37;;;;;;;13.50;2.90;;;;;;;;;;5061701;28;20044;-61
2023/01/11 08:04:03;;;;;;;10.85;1.65;;;;;;;;;;5046090;28;20044;-61
2023/01/11 08:06:29;;;;;;;10.52;2.33;;;;;;;;;;5044287;28;20051;-61
2023/01/11 08:08:55;;;;;;;10.02;2.30;;;;;;;;;;5039515;28;20044;-60
2023/01/11 08:16:50;;;;;;;19.77;3.00;;;9.40;99.90;;;;;;5054735;28;20044;-61
2023/01/11 08:19:16;;;;;;;13.07;2.17;;;;;;;;;;5062617;28;20036;-60
2023/01/11 08:21:43;;;;;;;10.95;2.42;;;;;;;;;;5033861;28;20044;-60
2023/01/11 08:24:09;;;;;;;10.15;2.00;;;;;;;;;;5061946;28;20045;-61
2023/01/11 08:26:35;;;;;;;10.93;2.53;;;;;;;;;;5065404;28;20040;-61
2023/01/11 08:29:01;;;;;;;9.18;2.30;;;;;;;;;;5047437;28;20417;-61
2023/01/11 08:31:27;;;;;;;10.57;1.92;;;9.40;99.90;;;;;;5065372;28;20109;-61
2023/01/11 08:33:53;;;;;;;13.18;2.15;;;;;;;;;;5065450;28;20061;-61
2023/01/11 08:36:19;;;;;;;11.40;3.00;;;;;;;;;;5066627;28;20072;-60
2023/01/11 08:38:45;;;;;;;14.30;2.58;;;;;;;;;;5065835;28;20434;-60
2023/01/11 08:41:10;;;;;;;13.25;2.55;;;9.30;99.90;;;;;;5065749;28;20047;-60
2023/01/11 08:43:40;;;;;;;8.15;2.20;;;;;;;;;;5074216;28;20032;-61
2023/01/11 08:46:09;;;;;;;15.02;2.58;;;;;;;;;;5051769;28;20585;-61
2023/01/11 08:48:35;;;;;;;9.13;1.73;;;;;;;;;;5051477;28;20052;-61
2023/01/11 08:51:01;;;;;;;10.20;2.35;;;;;;;;;;5077946;28;20054;-61
2023/01/11 08:53:27;;;;;;;9.68;2.72;;;9.20;99.90;;;;;;5069596;28;20115;-61
2023/01/11 08:55:53;;;;;;;13.52;2.92;;;;;;;;;;5073822;28;20048;-61
2023/01/11 08:58:20;;;;;;;9.02;2.47;;;;;;;;;;5072027;28;20554;-60
2023/01/11 09:00:46;;;;;;;13.10;2.28;;;9.30;99.90;;;;;;5058438;28;20076;-59
2023/01/11 09:03:12;;;;;;;14.88;2.20;;;;;;;;;;5078051;28;20096;-60
2023/01/11 09:05:38;;;;;;;13.18;3.53;;;;;;;;;;5051146;28;20040;-61
2023/01/11 09:08:05;;;;;;;8.27;1.90;;;;;;;;;;5069359;28;20051;-62
2023/01/11 09:10:31;;;;;;;8.80;1.95;;;9.30;99.90;;;;;;5050691;28;20048;-60
2023/01/11 09:12:57;;;;;;;12.73;3.08;;;;;;;;;;5068966;28;20040;-62
2023/01/11 09:15:24;;;;;;;6.82;1.95;;;;;;;;;;5076789;28;20037;-61
2023/01/11 09:17:50;;;;;;;13.88;2.95;;;;;;;;;;5050712;28;20072;-61
2023/01/11 09:20:17;;;;;;;9.65;2.00;;;9.70;99.90;;;;;;5050107;28;20040;-61
2023/01/11 09:22:47;;;;;;;7.88;2.67;;;9.90;99.90;;;;;;5074826;28;20631;-61
2023/01/11 09:25:13;;;;;;;6.15;2.42;;;10.10;99.90;;;;;;5055877;28;20044;-61
2023/01/11 09:27:43;;;;;;;6.60;2.08;;;;;;;;;;5070290;28;20043;-61
2023/01/11 09:30:09;;;;;;;12.82;1.77;;;;;;;;;;5068033;28;20587;-61
2023/01/11 09:32:35;;;;;;;12.73;2.05;;;;;;;;;;5051388;28;20176;-62
2023/01/11 09:35:02;;;;;;;12.38;2.38;;;;;;;;;;5067789;28;20557;-62
2023/01/11 09:37:28;;;;;;;7.20;2.65;;;10.70;99.90;;;;;;5068320;28;20055;-61
2023/01/11 09:39:53;;;;;;;9.73;2.10;;;10.60;99.90;;;;;;5058850;28;20418;-61
2023/01/11 09:42:39;;;;;;;15.45;2.63;;;;;;;;;;5069574;28;20039;-61
2023/01/11 09:45:06;;;;;;;13.15;2.30;;;;;;;;;;5047006;28;20048;-60
2023/01/11 09:47:37;;;;;;;17.38;2.67;;;;;;;;;;5067095;28;20049;-62
2023/01/11 09:50:06;;;;;;;12.43;2.00;;;;;;;;;;5064463;28;20110;-62
2023/01/11 09:52:38;;;;;;;16.73;2.92;;;;;;;;;;5049846;28;20078;-61
2023/01/11 09:55:06;;;;;;;15.93;3.55;;;10.50;99.90;;;;;;5071416;28;20139;-61
2023/01/11 09:57:57;;;;;;;18.67;2.47;;;10.70;99.90;;;;;;5048276;28;20429;-61
2023/01/11 10:00:49;;;;;;;10.02;2.45;;;;;;;;;;5048436;28;20037;-61
2023/01/11 10:03:18;;;;;;;16.23;3.00;;;;;;;;;;5036606;28;20532;-61
2023/01/11 10:05:54;;;;;;;12.98;3.08;;;13.20;99.90;;;;;;5048083;28;20402;-62
2023/01/11 10:08:48;;;;;;;16.65;4.22;;;12.60;99.90;;;;;;5067917;28;20048;-61
2023/01/11 10:11:32;;;;;;;17.65;5.22;;;;;;;;;;5049127;28;20086;-60
2023/01/11 10:14:20;;;;;;;15.40;3.65;;;11.70;99.90;;;;;;5046188;28;20048;-60
2023/01/11 10:16:59;;;;;;;14.25;3.22;;;;;;;;;;5069347;28;20058;-61
2023/01/11 10:19:34;;;;;;;14.95;2.92;;;11.60;99.90;;;;;;5062417;28;20050;-61
2023/01/11 10:22:04;;;;;;;17.48;3.30;;;;;;;;;;5065341;28;20123;-60
2023/01/11 10:24:34;;;;;;;11.45;2.72;;;;;;;;;;5065475;28;20086;-61
2023/01/11 10:27:06;;;;;;;17.85;3.80;;;11.10;99.90;;;;;;5049103;28;20048;-60
2023/01/11 10:33:09;;;;;;;17.45;3.40;;;11.20;99.90;;;;;;5067087;28;20067;-60
2023/01/11 10:35:58;;;;;;;17.38;2.42;;;11.10;99.90;;;;;;5058162;28;20056;-60
2023/01/11 10:41:32;;;;;;;13.80;3.63;;;11.20;99.90;;;;;;5067287;28;20048;-60
2023/01/11 10:44:47;;;;;;;11.25;2.40;;;11.20;99.90;;;;;;5067104;28;20494;-60
2023/01/11 10:47:17;;;;;;;15.18;3.83;;;;;;;;;;5011193;28;20128;-61
2023/01/11 10:50:13;;;;;;;10.82;2.78;;;11.30;99.90;;;;;;5051783;28;20040;-61
2023/01/11 10:52:43;;;;;;;16.88;3.38;;;;;;;;;;5048477;28;20040;-61
2023/01/11 10:55:25;;;;;;;19.15;3.33;;;11.10;99.90;;;;;;5060554;28;20052;-59
2023/01/11 10:58:11;;;;;;;20.05;3.35;;;;;;;;;;5054765;28;20044;-60
2023/01/11 11:00:37;;;;;;;14.65;3.08;;;;;;;;;;5057758;28;20109;-61
2023/01/11 11:03:15;;;;;;;19.38;4.20;;;11.10;99.90;;;;;;5061406;28;20044;-61
2023/01/11 11:06:13;;;;;;;21.45;3.90;;;;;;;;;;5053860;28;20142;-61
2023/01/11 11:08:56;;;;;;;15.85;3.10;;;11.20;99.90;;;;;;4976095;28;20051;-60
2023/01/11 11:11:29;;;;;;;14.30;2.78;;;;;;;;;;5062759;28;20121;-60
2023/01/11 11:14:00;;;;;;;17.20;3.72;;;11.20;99.90;;;;;;5038465;28;20045;-60
2023/01/11 11:16:33;;;;;;;18.58;3.30;;;;;;;;;;5054314;28;20036;-61
2023/01/11 11:18:58;;;;;;;21.23;3.38;;;11.20;99.90;;;;;;5064236;28;20041;-61
2023/01/11 11:21:29;;;;;;;22.23;4.65;;;11.00;99.90;;;;;;5048011;28;20048;-60
2023/01/11 11:23:58;;;;;;;19.00;3.47;;;;;;;;;;5042497;28;20120;-61
2023/01/11 11:26:29;;;;;;;16.80;3.38;;;11.10;99.90;;;;;;5056461;28;20070;-60
2023/01/11 11:29:18;;;;;;;14.48;3.30;;;;;;;;;;5055429;28;20510;-61
2023/01/11 11:31:45;;;;;;;19.92;4.88;;;11.20;99.90;;;;;;5072311;28;20056;-60
2023/01/11 11:34:18;;;;;;;17.08;3.58;;;11.10;99.90;;;;;;5067206;28;20078;-62
2023/01/11 11:36:49;;;;;;;18.40;3.35;;;;;;;;;;5048354;28;20067;-61
2023/01/11 11:39:28;;;;;;;14.63;2.90;;;;;;;;;;5066528;28;20048;-61
2023/01/11 11:42:13;;;;;;;18.10;3.33;;;;;;;;;;5043925;28;20040;-60
2023/01/11 11:44:39;;;;;;;19.00;3.55;;;11.20;99.90;;;;;;5065302;28;20040;-61
2023/01/11 11:47:13;;;;;;;14.52;3.40;;;11.20;99.90;;;;;;5071279;28;20085;-62
2023/01/11 11:49:40;;;;;;;14.20;3.03;;;;;;;;;;5069703;28;20098;-61
2023/01/11 11:52:10;;;;;;;17.50;3.38;;;;;;;;;;5065429;28;20076;-62
2023/01/11 11:54:40;;;;;;;16.30;2.97;;;;;;;;;;5035958;28;20060;-61
2023/01/11 11:57:18;;;;;;;14.98;2.85;;;;;;;;;;5057934;28;20555;-61
2023/01/11 11:59:48;;;;;;;13.70;3.45;;;;;;;;;;5022250;28;20048;-60
2023/01/11 12:02:25;;;;;;;15.77;4.20;;;;;;;;;;5056645;28;20045;-61
2023/01/11 12:04:52;;;;;;;18.30;2.97;;;11.40;99.90;;;;;;5052926;28;20371;-61
2023/01/11 12:07:19;;;;;;;15.63;2.67;;;;;;;;;;5058638;28;20543;-61
2023/01/11 12:09:54;;;;;;;20.63;3.08;;;;;;;;;;5038600;28;20509;-61
2023/01/11 12:12:21;;;;;;;15.23;3.97;;;11.40;99.90;;;;;;5031058;28;20460;-61
2023/01/11 12:15:18;;;;;;;20.63;3.85;;;11.30;99.90;;;;;;5034733;28;20128;-61
2023/01/11 12:17:44;;;;;;;11.70;2.88;;;;;;;;;;5052147;28;20052;-60
2023/01/11 12:20:22;;;;;;;13.23;4.85;;;;;;;;;;5055751;28;20487;-61
2023/01/11 12:23:07;;;;;;;14.95;3.00;;;;;;;;;;5041397;28;20044;-61
2023/01/11 12:25:39;;;;;;;16.70;2.80;;;11.20;99.90;;;;;;5071348;28;20043;-61
2023/01/11 12:28:17;;;;;;;21.65;3.63;;;;;;;;;;5070191;28;20127;-60
2023/01/11 12:30:51;;;;;;;15.43;3.58;;;10.70;99.90;;;;;;5069423;28;20056;-60
2023/01/11 12:33:23;;;;;;;24.48;4.75;;;10.60;99.90;;;;;;5068005;28;20039;-61
2023/01/11 12:36:02;;;;;;;24.23;3.35;;;10.70;99.90;;;;;;5057754;28;20423;-60
2023/01/11 12:38:46;;;;;;;16.30;2.80;;;10.90;99.90;;;;;;5077979;28;20548;-60
2023/01/11 12:41:42;;;;;;;10.90;2.85;;;10.70;99.90;;;;;;5069718;28;20090;-59
2023/01/11 12:44:45;;;;;;;11.45;2.58;;;10.60;99.90;;;;;;5069239;28;20529;-61
2023/01/11 12:47:30;;;;;;;23.48;3.92;;;;;;;;;;5059943;28;20495;-61
2023/01/11 12:50:13;;;;;;;22.45;3.75;;;10.70;99.90;;;;;;5070181;28;20079;-60
2023/01/11 12:52:52;;;;;;;21.85;3.63;;;10.40;99.90;;;;;;5070164;28;20557;-61
2023/01/11 12:55:45;;;;;;;20.15;3.92;;;10.40;99.90;;;;;;5038602;28;20051;-61
2023/01/11 12:58:14;;;;;;;19.33;3.42;;;;;;;;;;5037867;28;20109;-66
2023/01/11 13:00:43;;;;;;;23.48;4.35;;;;;;;;;;5035235;28;20044;-60
2023/01/11 13:03:28;;;;;;;16.73;3.70;;;10.40;99.90;;;;;;5055723;28;20122;-61
2023/01/11 13:06:05;;;;;;;25.93;4.10;;;;;;;;;;5069695;28;20115;-61
2023/01/11 13:08:40;;;;;;;17.67;3.45;;;10.50;99.90;;;;;;5069557;28;20055;-61
2023/01/11 13:11:06;;;;;;;21.55;3.72;;;;;;;;;;5069809;28;20048;-61
2023/01/11 13:13:45;;;;;;;15.25;4.78;;;;;;;;;;5051299;28;20075;-61
2023/01/11 13:16:16;;;;;;;22.17;3.85;;;;;;;;;;5051686;28;20095;-61
2023/01/11 13:19:02;;;;;;;26.80;3.70;;;10.40;99.90;;;;;;5069020;28;20045;-61
2023/01/11 13:21:31;;;;;;;19.58;3.20;;;;;;;;;;5069211;28;20387;-61
2023/01/11 13:24:01;;;;;;;21.50;3.85;;;;;;;;;;5069196;28;20037;-61
2023/01/11 13:26:39;;;;;;;28.45;3.75;;;11.20;99.90;;;;;;5051349;28;20509;-61
2023/01/11 13:29:19;;;;;;;21.58;4.45;;;11.40;99.90;;;;;;5068228;28;20044;-61
2023/01/11 13:31:46;;;;;;;20.45;3.75;;;;;;;;;;5068967;28;20516;-61
2023/01/11 13:34:15;;;;;;;18.13;3.55;;;;;;;;;;5050689;28;20490;-61
2023/01/11 13:36:50;;;;;;;20.27;3.67;;;11.40;99.90;;;;;;5069000;28;20047;-61
2023/01/11 13:39:21;;;;;;;18.40;3.85;;;;;;;;;;5069114;28;20817;-61
2023/01/11 13:41:54;;;;;;;18.70;3.50;;;10.90;99.90;;;;;;5068858;28;20469;-60
2023/01/11 13:44:22;;;;;;;25.33;3.90;;;;;;;;;;5068781;28;20045;-61
2023/01/11 13:47:11;;;;;;;29.10;5.13;;;;;;;;;;5068668;28;20033;-60
2023/01/11 13:49:48;;;;;;;20.98;3.30;;;;;;;;;;5068478;28;20080;-60
2023/01/11 13:52:30;;;;;;;18.92;3.72;;;10.50;99.90;;;;;;5068645;28;20048;-60
2023/01/11 13:55:06;;;;;;;17.73;3.78;;;;;;;;;;5068893;28;20071;-61
2023/01/11 13:57:35;;;;;;;20.02;4.15;;;;;;;;;;5068615;28;20044;-61
2023/01/11 14:00:06;;;;;;;25.38;3.78;;;;;;;;;;5050361;28;20056;-59
2023/01/11 14:02:32;;;;;;;13.57;3.55;;;;;;;;;;5050757;28;20067;-61
2023/01/11 14:05:01;;;;;;;21.60;4.30;;;;;;;;;;5068389;28;20040;-63
2023/01/11 14:07:45;;;;;;;19.73;3.38;;;;;;;;;;5050484;28;20103;-62
2023/01/11 14:10:29;;;;;;;19.75;3.83;;;9.90;99.90;;;;;;5050023;28;20550;-61
2023/01/11 14:13:10;;;;;;;19.83;3.72;;;;;;;;;;5068300;28;20495;-60
2023/01/11 14:15:42;;;;;;;26.80;4.50;;;;;;;;;;5067938;28;20441;-60
2023/01/11 14:18:35;;;;;;;23.08;3.90;;;10.00;99.90;;;;;;5067876;28;20397;-60
2023/01/11 14:21:01;;;;;;;21.02;4.28;;;;;;;;;;5068330;28;20431;-60
2023/01/11 14:23:42;;;;;;;15.88;3.75;;;;;;;;;;5068211;28;20428;-59
2023/01/11 14:26:14;;;;;;;18.98;5.15;;;;;;;;;;5068401;28;20051;-59
2023/01/11 14:29:01;;;;;;;26.20;2.90;;;;;;;;;;5068371;28;20048;-59
2023/01/11 14:31:38;;;;;;;20.83;3.03;;;;;;;;;;5049950;28;20084;-59
2023/01/11 14:34:33;;;;;;;23.73;3.95;;;9.80;99.90;;;;;;5068304;28;20041;-59
2023/01/11 14:37:18;;;;;;;25.80;5.28;;;;;;;;;;5039855;28;20080;-61
2023/01/11 14:39:44;;;;;;;24.90;3.63;;;;;;;;;;5067737;28;20455;-62
2023/01/11 14:42:17;;;;;;;22.65;3.53;;;;;;;;;;5050078;28;20123;-62
2023/01/11 14:45:02;;;;;;;20.15;3.50;;;;;;;;;;5067952;28;20040;-62
2023/01/11 14:47:47;;;;;;;18.65;3.30;;;;;;;;;;5068093;28;20036;-62
2023/01/11 14:50:27;;;;;;;17.73;3.57;;;;;;;;;;5049819;28;20052;-60
2023/01/11 14:52:56;;;;;;;20.40;3.30;;;;;;;;;;5049844;28;20371;-62
2023/01/11 14:55:25;;;;;;;24.25;4.43;;;;;;;;;;5067975;28;20051;-61